Time;durP1;ratioP1;P1;durP2;ratioP2;P2;SDS_P1;SDS_P2;PMS_P1;PMS_P2;Temp;Humidity;BMP_temperature;BMP_pressure;BME280_temperature;BME280_humidity;BME280_pressure;Samples;Min_cycle;Max_cycle;Signal;HPM_P1;HPM_P2
2023/05/11 00:01:17;293003.00;0.98;505.89;86302.00;0.29;149.92;;;;;17.40;1.00;;;;;;2265853;61;1073;-83
2023/05/11 00:06:13;1373948.00;4.58;2408.09;64127.00;0.21;111.61;;;;;17.40;1.00;;;;;;2275651;61;1418;-82
2023/05/11 00:08:42;581489.00;1.94;1002.27;32182.00;0.11;56.36;;;;;17.40;1.00;;;;;;2274153;61;1201;-83
2023/05/11 00:11:10;914374.00;3.05;1581.38;33354.00;0.11;58.39;;;;;17.40;1.00;;;;;;2265572;61;1055;-83
2023/05/11 00:16:22;1401505.00;4.67;2459.12;74648.00;0.25;129.79;;;;;17.60;1.00;;;;;;2275360;61;1967;-82
2023/05/11 00:18:49;41971.00;0.14;73.30;0.00;0.00;0.62;;;;;17.30;1.00;;;;;;2273981;61;1014;-83
2023/05/11 00:21:19;267468.00;0.89;461.99;0.00;0.00;0.62;;;;;17.20;1.00;;;;;;2265152;61;1154;-84
2023/05/11 00:26:16;514928.00;1.72;887.53;0.00;0.00;0.62;;;;;17.10;1.00;;;;;;2278188;61;1401;-82
2023/05/11 00:28:44;87776.00;0.29;152.47;0.00;0.00;0.62;;;;;17.20;1.00;;;;;;2270711;61;1066;-82
2023/05/11 00:31:11;105528.00;0.35;183.11;0.00;0.00;0.62;;;;;17.30;1.00;;;;;;2258787;61;1099;-82
2023/05/11 00:36:09;598635.00;2.00;1031.86;0.00;0.00;0.62;;;;;17.40;1.00;;;;;;2273249;61;1987;-82
2023/05/11 00:38:39;118139.00;0.39;204.87;0.00;0.00;0.62;;;;;17.50;1.00;;;;;;2271704;61;1039;-82
2023/05/11 00:41:07;151826.00;0.51;262.95;0.00;0.00;0.62;;;;;17.20;1.00;;;;;;2270793;61;1694;-82
2023/05/11 00:46:03;912049.00;3.04;1577.29;0.00;0.00;0.62;;;;;16.90;1.00;;;;;;2272820;61;1421;-82
2023/05/11 00:48:31;133745.00;0.45;231.79;0.00;0.00;0.62;;;;;17.00;1.00;;;;;;2271162;61;1067;-82
2023/05/11 00:51:03;58543.00;0.20;101.96;0.00;0.00;0.62;;;;;17.10;1.00;;;;;;2270906;61;1081;-81
2023/05/11 00:56:09;551492.00;1.84;950.53;0.00;0.00;0.62;;;;;16.70;1.00;;;;;;2268210;61;1970;-81
2023/05/11 01:01:09;857158.00;2.86;1481.00;17380.00;0.06;30.73;;;;;16.70;1.00;;;;;;2273350;61;1418;-83
2023/05/11 01:03:36;164697.00;0.55;285.13;0.00;0.00;0.62;;;;;16.70;1.00;;;;;;2271933;61;1497;-84
2023/05/11 01:06:11;141270.00;0.47;244.76;0.00;0.00;0.62;;;;;16.90;1.00;;;;;;2271443;61;1652;-83
2023/05/11 01:11:12;1109531.00;3.70;1927.48;103015.00;0.34;178.78;;;;;17.20;1.00;;;;;;2273207;61;1426;-84
2023/05/11 01:16:14;566282.00;1.89;976.03;0.00;0.00;0.62;;;;;17.30;1.00;;;;;;2273378;61;1979;-84
2023/05/11 01:18:48;162238.00;0.54;280.90;0.00;0.00;0.62;;;;;17.40;1.00;;;;;;2271796;61;1110;-82
2023/05/11 01:21:17;52964.00;0.18;92.31;0.00;0.00;0.62;;;;;17.50;1.00;;;;;;2262633;61;1097;-82
2023/05/11 01:24:07;463023.00;1.54;798.19;86839.00;0.29;150.85;;;;;17.40;1.00;;;;;;2258596;61;1319;-82
2023/05/11 01:26:46;94806.00;0.32;164.61;0.00;0.00;0.62;;;;;17.40;1.00;;;;;;2258302;61;1013;-82
2023/05/11 01:29:56;17551.00;0.06;31.03;0.00;0.00;0.62;;;;;17.50;1.00;;;;;;2259053;61;1630;-82
2023/05/11 01:32:27;113154.00;0.38;196.27;0.00;0.00;0.62;;;;;17.60;1.00;;;;;;2245895;61;1150;-82
2023/05/11 01:37:32;747719.00;2.49;1290.09;0.00;0.00;0.62;;;;;17.50;1.00;;;;;;2272555;61;1354;-83
2023/05/11 01:40:03;225599.00;0.75;389.98;0.00;0.00;0.62;;;;;17.60;1.00;;;;;;2267634;61;1265;-83
2023/05/11 01:42:40;35563.00;0.12;62.21;0.00;0.00;0.62;;;;;17.60;1.00;;;;;;2271608;61;1175;-82
2023/05/11 01:47:40;711175.00;2.37;1226.62;0.00;0.00;0.62;;;;;17.80;1.00;;;;;;2276762;61;1380;-83
2023/05/11 01:50:09;253873.00;0.85;438.61;0.00;0.00;0.62;;;;;17.70;1.00;;;;;;2270678;61;1097;-83
2023/05/11 01:52:38;51815.00;0.17;90.32;0.00;0.00;0.62;;;;;17.70;1.00;;;;;;2270654;61;1074;-83
2023/05/11 01:57:57;922098.00;3.07;1594.96;67224.00;0.22;116.96;;;;;17.90;1.00;;;;;;2273073;61;1331;-81
2023/05/11 02:00:24;25031.00;0.08;43.98;0.00;0.00;0.62;;;;;17.80;1.00;;;;;;2271338;61;1834;-82
2023/05/11 02:02:56;38570.00;0.13;67.41;0.00;0.00;0.62;;;;;17.60;1.00;;;;;;2271165;61;1193;-82
2023/05/11 02:07:53;547783.00;1.83;944.14;0.00;0.00;0.62;;;;;17.10;1.00;;;;;;2276838;61;1370;-83
2023/05/11 02:10:24;88797.00;0.30;154.23;0.00;0.00;0.62;;;;;17.10;1.00;;;;;;2275230;61;1164;-83
2023/05/11 02:12:53;71584.00;0.24;124.50;0.00;0.00;0.62;;;;;17.10;1.00;;;;;;2275339;61;1120;-83
2023/05/11 02:17:53;610925.00;2.04;1053.09;0.00;0.00;0.62;;;;;17.20;1.00;;;;;;2276913;61;1437;-84
2023/05/11 02:20:21;202746.00;0.68;350.65;0.00;0.00;0.62;;;;;17.20;1.00;;;;;;2275036;61;1706;-84
2023/05/11 02:22:50;62038.00;0.21;108.00;0.00;0.00;0.62;;;;;17.10;1.00;;;;;;2274796;61;1120;-83
2023/05/11 02:27:46;610438.00;2.03;1052.25;0.00;0.00;0.62;;;;;17.10;1.00;;;;;;2264866;61;1419;-83
2023/05/11 02:30:14;100680.00;0.34;174.75;0.00;0.00;0.62;;;;;17.30;1.00;;;;;;2263242;61;1171;-84
2023/05/11 02:32:48;195009.00;0.65;337.33;0.00;0.00;0.62;;;;;17.30;1.00;;;;;;2258379;61;1107;-84
2023/05/11 02:38:21;588938.00;1.96;1015.12;0.00;0.00;0.62;;;;;17.20;1.00;;;;;;2273915;61;1319;-83
2023/05/11 02:40:55;74783.00;0.25;130.02;0.00;0.00;0.62;;;;;17.20;1.00;;;;;;2266560;61;1117;-84
2023/05/11 02:43:25;13698.00;0.05;24.36;0.00;0.00;0.62;;;;;17.30;1.00;;;;;;2266302;61;1341;-84
2023/05/11 02:45:57;22743.00;0.08;40.02;0.00;0.00;0.62;;;;;17.30;1.00;;;;;;2258448;61;1588;-84
2023/05/11 02:48:28;123170.00;0.41;213.55;0.00;0.00;0.62;;;;;17.30;1.00;;;;;;2252116;61;1103;-83
2023/05/11 02:51:00;219274.00;0.73;379.09;87362.00;0.29;151.75;;;;;17.40;1.00;;;;;;2258177;61;1115;-84
2023/05/11 02:56:02;1096271.00;3.65;1903.76;152195.00;0.51;263.59;;;;;17.60;1.00;;;;;;2276778;61;1964;-84
2023/05/11 02:58:30;269961.00;0.90;466.28;99005.00;0.33;171.85;;;;;17.60;1.00;;;;;;2274891;61;1070;-84
2023/05/11 03:00:58;234659.00;0.78;405.56;88685.00;0.30;154.04;;;;;17.60;1.00;;;;;;2274735;61;1170;-84
2023/05/11 03:06:08;726024.00;2.42;1252.40;87896.00;0.29;152.67;;;;;17.50;1.00;;;;;;2273158;61;1381;-83
2023/05/11 03:08:36;1114484.00;3.71;1936.35;146213.00;0.49;253.28;;;;;17.50;1.00;;;;;;2266676;61;1044;-84
2023/05/11 03:11:06;1073625.00;3.58;1863.32;191257.00;0.64;330.87;;;;;17.30;1.00;;;;;;2266712;61;1078;-84
2023/05/11 03:16:03;1571983.00;5.24;2779.31;313368.00;1.04;540.90;;;;;17.50;1.00;;;;;;2281714;61;1973;-83
2023/05/11 03:18:32;1083581.00;3.61;1881.09;172234.00;0.57;298.11;;;;;17.60;1.00;;;;;;2268717;61;1172;-83
2023/05/11 03:21:01;1311386.00;4.37;2292.96;132972.00;0.44;230.45;;;;;17.60;1.00;;;;;;2270387;61;1166;-83
2023/05/11 03:26:07;1382599.00;4.61;2424.09;268249.00;0.89;463.33;;;;;17.40;1.00;;;;;;2280834;61;1385;-83
2023/05/11 03:28:37;976223.00;3.25;1690.40;114088.00;0.38;197.88;;;;;17.50;1.00;;;;;;2270638;61;1133;-80
2023/05/11 03:31:04;1071218.00;3.57;1859.03;79370.00;0.26;137.95;;;;;17.40;1.00;;;;;;2266345;61;1224;-83
2023/05/11 03:36:03;1276640.00;4.26;2229.42;75308.00;0.25;130.93;;;;;17.30;1.00;;;;;;2276779;61;1968;-82
2023/05/11 03:38:34;993579.00;3.31;1721.10;145331.00;0.48;251.76;;;;;17.10;1.00;;;;;;2270429;61;1621;-83
2023/05/11 03:41:01;659169.00;2.20;1136.50;67770.00;0.23;117.91;;;;;17.30;1.00;;;;;;2266338;61;1089;-82
2023/05/11 03:46:02;1466656.00;4.89;2580.53;117248.00;0.39;203.34;;;;;17.30;1.00;;;;;;2272229;61;1359;-82
2023/05/11 03:51:04;1495895.00;4.99;2635.40;153688.00;0.51;266.16;;;;;17.20;1.00;;;;;;2272588;61;1374;-83
2023/05/11 03:55:59;1099365.00;3.66;1909.29;110554.00;0.37;191.79;;;;;17.60;1.00;;;;;;2272116;61;1907;-83
2023/05/11 03:58:26;948433.00;3.16;1641.35;104157.00;0.35;180.75;;;;;17.80;1.00;;;;;;2266065;61;1244;-83
2023/05/11 04:00:53;1216318.00;4.05;2119.75;194342.00;0.65;336.18;;;;;17.40;1.00;;;;;;2266285;61;1158;-82
2023/05/11 04:03:22;1250394.00;4.17;2181.60;140442.00;0.47;243.33;;;;;17.40;1.00;;;;;;2266194;61;1300;-82
2023/05/11 04:06:05;1237560.00;4.13;2158.28;118284.00;0.39;205.12;;;;;17.30;1.00;;;;;;2254519;61;1077;-81
2023/05/11 04:08:32;1087081.00;3.62;1887.34;95079.00;0.32;165.08;;;;;17.20;1.00;;;;;;2254406;61;1510;-82
2023/05/11 04:10:59;846780.00;2.82;1462.83;74850.00;0.25;130.14;;;;;17.30;1.00;;;;;;2254008;61;1138;-83
2023/05/11 04:15:55;1420170.00;4.73;2493.79;71257.00;0.24;123.93;;;;;17.20;1.00;;;;;;2272461;61;1969;-83
2023/05/11 04:18:23;1267158.00;4.22;2212.13;107541.00;0.36;186.59;;;;;17.30;1.00;;;;;;2270743;61;1733;-83
2023/05/11 04:20:51;1356959.00;4.52;2376.73;32587.00;0.11;57.06;;;;;17.40;1.00;;;;;;2257999;61;1005;-82
2023/05/11 04:23:18;989516.00;3.30;1713.91;16417.00;0.05;29.06;;;;;17.40;1.00;;;;;;2249966;61;1340;-82
2023/05/11 04:25:46;1002778.00;3.34;1737.39;21328.00;0.07;37.57;;;;;17.80;1.00;;;;;;2249737;61;1119;-82
2023/05/11 04:28:16;1218314.00;4.06;2123.37;37948.00;0.13;66.34;;;;;18.00;1.00;;;;;;2245812;62;1142;-83
2023/05/11 04:30:56;1406028.00;4.69;2467.51;149135.00;0.50;258.32;;;;;18.10;1.00;;;;;;2245894;61;1137;-83
2023/05/11 04:36:04;1578361.00;5.26;2791.46;146580.00;0.49;253.91;;;;;17.50;1.00;;;;;;2280789;61;1913;-83
2023/05/11 04:38:31;1090503.00;3.64;1893.45;99611.00;0.33;172.90;;;;;17.60;1.00;;;;;;2265872;61;1102;-83
2023/05/11 04:40:58;959976.00;3.20;1661.71;78351.00;0.26;136.19;;;;;17.60;1.00;;;;;;2269783;61;1596;-81
2023/05/11 04:45:59;1511513.00;5.04;2664.80;146141.00;0.49;253.16;;;;;17.30;1.00;;;;;;2272148;61;1406;-82
2023/05/11 04:48:27;1241601.00;4.14;2165.62;175900.00;0.59;304.43;;;;;17.30;1.00;;;;;;2262322;61;1110;-83
2023/05/11 04:50:55;903084.00;3.01;1561.54;90719.00;0.30;157.55;;;;;17.00;1.00;;;;;;2262394;61;1729;-82
2023/05/11 04:55:55;1486291.00;4.95;2617.35;129030.00;0.43;223.66;;;;;17.10;1.00;;;;;;2280668;61;1966;-83
2023/05/11 04:58:22;1371730.00;4.57;2403.99;49614.00;0.17;86.52;;;;;17.20;1.00;;;;;;2277589;61;1238;-84
2023/05/11 05:00:51;1566988.00;5.22;2769.81;156285.00;0.52;270.64;;;;;17.30;1.00;;;;;;2279175;61;1177;-82
2023/05/11 05:03:25;1198744.00;4.00;2087.95;108866.00;0.36;188.87;;;;;17.30;1.00;;;;;;2278722;61;1400;-83
2023/05/11 05:08:27;2193600.00;7.31;4029.72;86041.00;0.29;149.47;;;;;17.30;1.00;;;;;;2276569;61;1406;-84
2023/05/11 05:16:05;800664.00;2.67;1382.28;0.00;0.00;0.62;;;;;17.20;1.00;;;;;;2267740;61;1973;-82
2023/05/11 05:18:34;303235.00;1.01;523.48;90950.00;0.30;157.95;;;;;17.30;1.00;;;;;;2266098;61;1676;-83
2023/05/11 05:21:02;241789.00;0.81;417.83;0.00;0.00;0.62;;;;;17.10;1.00;;;;;;2266949;61;1154;-82
2023/05/11 05:26:09;996332.00;3.32;1725.98;92062.00;0.31;159.87;;;;;16.90;1.00;;;;;;2271032;61;1422;-82
2023/05/11 05:28:38;292074.00;0.97;504.29;65100.00;0.22;113.29;;;;;17.10;1.00;;;;;;2269971;61;1078;-82
2023/05/11 05:31:11;385118.00;1.28;664.22;79207.00;0.26;137.67;;;;;17.20;1.00;;;;;;2270382;61;1776;-81
2023/05/11 05:36:33;701804.00;2.34;1210.37;86812.00;0.29;150.80;;;;;17.70;1.00;;;;;;2271633;61;1898;-81
2023/05/11 05:39:02;1382027.00;4.61;2423.03;170335.00;0.57;294.84;;;;;17.90;1.00;;;;;;2268775;61;1106;-83
2023/05/11 05:41:33;887037.00;2.96;1533.36;122589.00;0.41;212.55;;;;;17.70;1.00;;;;;;2268377;61;1114;-83
2023/05/11 05:44:01;645553.00;2.15;1112.94;102127.00;0.34;177.24;;;;;17.70;1.00;;;;;;2268719;61;1711;-82
2023/05/11 05:46:35;118327408.00;394.42;67111016.00;117904632.00;393.02;66393588.00;;;;;17.60;1.00;;;;;;2269409;61;1667;-82
2023/05/11 05:49:11;1640253.00;5.47;2909.92;200299.00;0.67;346.44;;;;;17.70;1.00;;;;;;2268726;61;1149;-82
2023/05/11 06:05:06;185666.00;0.62;321.25;0.00;0.00;0.62;;;;;17.20;1.00;;;;;;2267886;61;1358;-82
2023/05/11 06:07:40;9765.00;0.03;17.54;0.00;0.00;0.62;;;;;17.40;1.00;;;;;;2269508;61;1074;-83
2023/05/11 06:10:10;113063.00;0.38;196.12;0.00;0.00;0.62;;;;;17.30;1.00;;;;;;2268578;61;1209;-83
2023/05/11 06:12:45;158150.00;0.53;273.85;0.00;0.00;0.62;;;;;17.30;1.00;;;;;;2269056;61;1543;-82
2023/05/11 06:15:13;318019.00;1.06;548.89;0.00;0.00;0.62;;;;;17.10;1.00;;;;;;2260339;61;1450;-81
2023/05/11 06:17:41;42114.00;0.14;73.55;0.00;0.00;0.62;;;;;17.10;1.00;;;;;;2260282;61;1936;-83
2023/05/11 06:20:13;182931.00;0.61;316.54;0.00;0.00;0.62;;;;;17.40;1.00;;;;;;2260504;61;1582;-83
2023/05/11 06:22:42;172014.00;0.57;297.74;0.00;0.00;0.62;;;;;17.50;1.00;;;;;;2261118;61;1557;-83
2023/05/11 06:27:42;629262.00;2.10;1084.77;0.00;0.00;0.62;;;;;17.60;1.00;;;;;;2270430;61;1701;-81
2023/05/11 06:30:10;326219.00;1.09;562.99;0.00;0.00;0.62;;;;;17.60;1.00;;;;;;2262270;61;1267;-83
2023/05/11 06:32:40;155960.00;0.52;270.08;0.00;0.00;0.62;;;;;17.90;1.00;;;;;;2269004;61;1174;-82
2023/05/11 06:37:36;730577.00;2.44;1260.30;0.00;0.00;0.62;;;;;18.00;1.00;;;;;;2271611;61;1912;-83
2023/05/11 06:40:08;182344.00;0.61;315.53;0.00;0.00;0.62;;;;;18.00;1.00;;;;;;2268967;61;1095;-83
2023/05/11 06:42:36;167543.00;0.56;290.03;0.00;0.00;0.62;;;;;18.10;1.00;;;;;;2269364;61;1201;-83
2023/05/11 06:45:06;188110.00;0.63;325.45;4359.00;0.01;8.17;;;;;17.90;1.00;;;;;;2269083;61;1662;-83
2023/05/11 06:47:34;162144.00;0.54;280.73;0.00;0.00;0.62;;;;;18.10;1.00;;;;;;2269498;61;1257;-84
2023/05/11 06:50:02;396124.00;1.32;683.14;83533.00;0.28;145.14;;;;;18.10;1.00;;;;;;2269273;61;1137;-82
2023/05/11 06:52:33;69579.00;0.23;121.03;0.00;0.00;0.62;;;;;18.30;1.00;;;;;;2269331;61;1812;-83
2023/05/11 06:57:36;901554.00;3.01;1558.85;9006.00;0.03;16.23;;;;;18.40;1.00;;;;;;2266886;61;1985;-82
2023/05/11 07:00:07;32159.00;0.11;56.32;0.00;0.00;0.62;;;;;18.60;1.00;;;;;;2264840;61;1801;-83
2023/05/11 07:02:35;266571.00;0.89;460.45;14548.00;0.05;25.83;;;;;18.40;1.00;;;;;;2256510;61;1693;-83
2023/05/11 07:07:31;574178.00;1.91;989.65;0.00;0.00;0.62;;;;;18.30;1.00;;;;;;2271209;61;1351;-82
2023/05/11 07:09:58;68368.00;0.23;118.94;0.00;0.00;0.62;;;;;18.60;1.00;;;;;;2269154;61;1153;-83
2023/05/11 07:12:25;124976.00;0.42;216.67;0.00;0.00;0.62;;;;;18.50;1.00;;;;;;2269386;61;1464;-82
2023/05/11 07:14:54;191163.00;0.64;330.71;0.00;0.00;0.62;;;;;18.70;1.00;;;;;;2268259;61;1603;-83
2023/05/11 07:17:21;81051.00;0.27;140.85;0.00;0.00;0.62;;;;;18.90;1.00;;;;;;2268796;61;2012;-83
2023/05/11 07:19:51;88666.00;0.30;154.00;0.00;0.00;0.62;;;;;18.90;1.00;;;;;;2269682;61;1301;-83
2023/05/11 07:22:18;81766.00;0.27;142.09;0.00;0.00;0.62;;;;;18.90;1.00;;;;;;2269108;61;1568;-83
2023/05/11 07:24:45;20426.00;0.07;36.01;0.00;0.00;0.62;;;;;18.80;1.00;;;;;;2270125;61;1273;-84
2023/05/11 07:27:13;244444.00;0.81;422.40;32253.00;0.11;56.48;;;;;18.80;1.00;;;;;;2265986;61;1078;-83
2023/05/11 08:09:18;648538.00;2.16;1118.11;40771.00;0.14;71.22;;;;;19.80;1.00;;;;;;2275244;61;1299;-90
2023/05/11 08:31:34;452069.00;1.51;779.34;0.00;0.00;0.62;;;;;18.90;1.00;;;;;;2279406;61;1319;-91
2023/05/11 13:42:28;1100989.00;3.67;1912.19;36772.00;0.12;64.30;;;;;18.00;1.00;;;;;;2261137;61;1413;-85
2023/05/11 15:32:21;785232.00;2.62;1355.38;52114.00;0.17;90.84;;;;;18.60;1.00;;;;;;2501166;41;3466;31
2023/05/11 15:54:37;549174.00;1.83;946.54;0.00;0.00;0.62;;;;;18.60;1.00;;;;;;2420314;55;3684;31
2023/05/11 17:53:04;913966.00;3.05;1580.66;0.00;0.00;0.62;;;;;17.00;1.00;;;;;;2441147;55;3595;-87
2023/05/11 17:55:31;370341.00;1.23;638.82;89815.00;0.30;155.99;;;;;16.50;1.00;;;;;;2255872;61;1682;-89
2023/05/11 17:57:57;188510.00;0.63;326.14;98431.00;0.33;170.86;;;;;16.40;1.00;;;;;;2256035;61;1922;-87
2023/05/11 18:00:26;23330.00;0.08;41.04;0.00;0.00;0.62;;;;;16.30;1.00;;;;;;2256115;61;1045;-87
2023/05/11 18:02:53;327124.00;1.09;564.54;74811.00;0.25;130.07;;;;;16.40;1.00;;;;;;2255945;61;919;-85
2023/05/11 18:05:20;210727.00;0.70;364.39;88754.00;0.30;154.16;;;;;16.30;1.00;;;;;;2255830;61;2309;-88
2023/05/11 18:07:47;49761.00;0.17;86.77;0.00;0.00;0.62;;;;;15.90;1.00;;;;;;2255877;61;1174;-88
2023/05/11 18:10:15;117025352.00;390.08;64917936.00;116893424.00;389.64;64698436.00;;;;;16.10;1.00;;;;;;2256034;61;965;-88
2023/05/11 18:12:42;118794856.00;395.98;67910240.00;118564000.00;395.21;67514752.00;;;;;16.50;1.00;;;;;;2255974;61;1010;-88
2023/05/11 18:15:10;308571.00;1.03;532.65;84907.00;0.28;147.51;;;;;16.80;1.00;;;;;;2255941;61;1388;-85
2023/05/11 18:17:39;74900.00;0.25;130.23;0.00;0.00;0.62;;;;;16.60;1.00;;;;;;2256081;61;1915;-87
2023/05/11 18:20:08;203588.00;0.68;352.10;81588.00;0.27;141.78;;;;;16.40;1.00;;;;;;2255796;61;1127;-88
2023/05/11 18:22:34;341397.00;1.14;589.07;86621.00;0.29;150.47;;;;;16.20;1.00;;;;;;2255994;61;970;-89
2023/05/11 18:25:02;236251.00;0.79;408.30;90328.00;0.30;156.87;;;;;16.00;1.00;;;;;;2256070;61;1283;-87
2023/05/11 18:27:30;274879.00;0.92;474.73;90156.00;0.30;156.58;;;;;15.90;1.00;;;;;;2256044;61;1133;-89
2023/05/11 18:29:57;215938.00;0.72;373.35;87661.00;0.29;152.27;;;;;15.80;1.00;;;;;;2255863;61;1029;-88
2023/05/11 18:32:25;204932.00;0.68;354.41;97657.00;0.33;169.53;;;;;15.80;1.00;;;;;;2255856;61;1122;-88
2023/05/11 18:34:52;328833.00;1.10;567.48;84510.00;0.28;146.83;;;;;15.50;1.00;;;;;;2255782;61;1373;-86
2023/05/11 18:37:19;204501.00;0.68;353.67;98734.00;0.33;171.39;;;;;15.40;1.00;;;;;;2255830;61;1990;-87
2023/05/11 18:39:46;252645.00;0.84;436.50;92512.00;0.31;160.65;;;;;15.40;1.00;;;;;;2255760;61;1137;-88
2023/05/11 18:42:13;193159.00;0.64;334.15;75650.00;0.25;131.52;;;;;15.80;1.00;;;;;;2255761;61;1127;-86
2023/05/11 18:44:41;189117.00;0.63;327.19;89966.00;0.30;156.25;;;;;16.10;1.00;;;;;;2255716;61;1368;-87
2023/05/11 18:47:09;224761.00;0.75;388.54;86119.00;0.29;149.61;;;;;16.20;1.00;;;;;;2255389;61;2269;-86
2023/05/11 18:49:37;388931.00;1.30;670.78;86936.00;0.29;151.02;;;;;16.50;1.00;;;;;;2255655;61;921;-86
2023/05/11 18:52:05;314554.00;1.05;542.94;94989.00;0.32;164.92;;;;;16.40;1.00;;;;;;2255655;61;1034;-84
2023/05/11 18:54:32;309586.00;1.03;534.40;89360.00;0.30;155.20;;;;;16.40;1.00;;;;;;2255729;61;1251;-85
2023/05/11 18:56:59;222418.00;0.74;384.50;90716.00;0.30;157.54;;;;;16.30;1.00;;;;;;2255817;61;1998;-87
2023/05/11 18:59:26;280078.00;0.93;483.67;97278.00;0.32;168.87;;;;;16.10;1.00;;;;;;2255882;61;1076;-86
2023/05/11 19:01:54;282637.00;0.94;488.07;90562.00;0.30;157.28;;;;;15.80;1.00;;;;;;2255868;61;1615;-87
2023/05/11 19:04:21;370209.00;1.23;638.60;96206.00;0.32;167.02;;;;;15.40;1.00;;;;;;2256022;61;1408;-88
2023/05/11 19:06:48;240137.00;0.80;414.99;76214.00;0.25;132.50;;;;;15.40;1.00;;;;;;2255897;61;1029;-87
2023/05/11 19:09:15;208565.00;0.70;360.67;88008.00;0.29;152.87;;;;;15.80;1.00;;;;;;2256017;61;1143;-88
2023/05/11 19:11:42;391996.00;1.31;676.05;86748.00;0.29;150.69;;;;;15.80;1.00;;;;;;2255782;61;1107;-89
2023/05/11 19:14:11;204753.00;0.68;354.10;87443.00;0.29;151.89;;;;;15.70;1.00;;;;;;2255638;61;1393;-88
2023/05/11 19:16:38;298466.00;0.99;515.28;83228.00;0.28;144.61;;;;;15.90;1.00;;;;;;2255872;61;1076;-86
2023/05/11 19:19:06;275436.00;0.92;475.69;86398.00;0.29;150.09;;;;;15.90;1.00;;;;;;2255782;61;1975;-87
2023/05/11 19:21:34;399098.00;1.33;688.25;55742.00;0.19;97.12;;;;;16.00;1.00;;;;;;2255838;61;1115;-89
2023/05/11 19:24:01;322361.00;1.07;556.36;96202.00;0.32;167.02;;;;;16.30;1.00;;;;;;2255751;61;1369;-88
2023/05/11 19:26:28;303400.00;1.01;523.76;90053.00;0.30;156.40;;;;;16.30;1.00;;;;;;2255891;61;1078;-88
2023/05/11 19:28:55;200114.00;0.67;346.12;90149.00;0.30;156.56;;;;;16.20;1.00;;;;;;2255395;61;1072;-88
2023/05/11 19:31:23;631236.00;2.10;1088.19;91099.00;0.30;158.21;;;;;16.00;1.00;;;;;;2255699;61;1123;-89
2023/05/11 19:33:50;298962.00;1.00;516.14;85829.00;0.29;149.10;;;;;15.80;1.00;;;;;;2256389;61;1395;-89
2023/05/11 19:36:19;291895.00;0.97;503.99;89232.00;0.30;154.98;;;;;15.70;1.00;;;;;;2256504;61;1044;-88
2023/05/11 19:38:46;393288.00;1.31;678.27;91287.00;0.30;158.53;;;;;15.40;1.00;;;;;;2256458;61;2009;-88
2023/05/11 19:41:12;295074.00;0.98;509.45;84663.00;0.28;147.09;;;;;15.40;1.00;;;;;;2256439;61;1115;-89
2023/05/11 19:43:39;323255.00;1.08;557.89;92318.00;0.31;160.31;;;;;15.40;1.00;;;;;;2256298;61;1306;-88
2023/05/11 19:46:06;393707.00;1.31;678.99;107049.00;0.36;185.74;;;;;15.40;1.00;;;;;;2256280;61;1111;-88
2023/05/11 19:48:33;156033.00;0.52;270.20;75607.00;0.25;131.45;;;;;15.70;1.00;;;;;;2256390;61;1022;-86
2023/05/11 19:51:00;242833.00;0.81;419.62;90228.00;0.30;156.70;;;;;15.80;1.00;;;;;;2256337;61;1126;-87
2023/05/11 19:53:28;303424.00;1.01;523.81;88018.00;0.29;152.89;;;;;15.90;1.00;;;;;;2256075;61;1683;-88
2023/05/11 19:55:55;352836.00;1.18;608.74;89441.00;0.30;155.34;;;;;16.00;1.00;;;;;;2256269;61;1065;-87
2023/05/11 19:58:23;292667.00;0.98;505.31;93885.00;0.31;163.02;;;;;16.30;1.00;;;;;;2256155;61;2002;-87
2023/05/11 20:00:50;194203.00;0.65;335.94;96901.00;0.32;168.22;;;;;16.40;1.00;;;;;;2256301;61;1091;-88
2023/05/11 20:03:17;204686.00;0.68;353.99;89199.00;0.30;154.92;;;;;16.50;1.00;;;;;;2256269;61;1354;-88
2023/05/11 20:05:45;337274.00;1.12;581.99;86600.00;0.29;150.44;;;;;16.80;1.00;;;;;;2256361;61;927;-87
2023/05/11 20:08:12;381180.00;1.27;657.45;85631.00;0.29;148.76;;;;;17.00;1.00;;;;;;2256120;61;1146;-85
2023/05/11 20:10:40;347409.00;1.16;599.41;122533.00;0.41;212.45;;;;;17.20;1.00;;;;;;2256281;61;1108;-87
2023/05/11 20:13:07;292884.00;0.98;505.69;86837.00;0.29;150.85;;;;;17.10;1.00;;;;;;2256218;61;1079;-87
2023/05/11 20:15:34;374471.00;1.25;645.92;116439.00;0.39;201.94;;;;;16.80;1.00;;;;;;2256011;61;1155;-89
2023/05/11 20:18:02;453052.00;1.51;781.03;129403.00;0.43;224.30;;;;;16.40;1.00;;;;;;2256244;61;1993;-88
2023/05/11 20:20:29;117898528.00;393.00;66383264.00;90922.00;0.30;157.90;;;;;16.30;1.00;;;;;;2256275;61;1147;-87
2023/05/11 20:22:56;242227.00;0.81;418.58;85048.00;0.28;147.76;;;;;16.00;1.00;;;;;;2256313;61;1018;-87
2023/05/11 20:25:23;223092.00;0.74;385.66;85813.00;0.29;149.08;;;;;15.70;1.00;;;;;;2256120;61;1376;-87
2023/05/11 20:27:52;275453.00;0.92;475.72;96197.00;0.32;167.01;;;;;16.00;1.00;;;;;;2256093;61;1038;-87
2023/05/11 20:30:19;243963.00;0.81;421.57;86740.00;0.29;150.68;;;;;16.10;1.00;;;;;;2256289;61;1103;-88
2023/05/11 20:32:46;260054.00;0.87;449.24;86824.00;0.29;150.82;;;;;16.40;1.00;;;;;;2256306;61;1107;-88
2023/05/11 20:35:13;212842.00;0.71;368.03;83560.00;0.28;145.19;;;;;16.40;1.00;;;;;;2256105;61;1396;-85
2023/05/11 20:37:40;226129.00;0.75;390.89;84278.00;0.28;146.43;;;;;16.20;1.00;;;;;;2256080;61;2002;-89
2023/05/11 20:40:08;243148.00;0.81;420.17;91868.00;0.31;159.53;;;;;16.20;1.00;;;;;;2256128;61;1032;-87
2023/05/11 20:42:37;222892.00;0.74;385.32;92818.00;0.31;161.17;;;;;16.50;1.00;;;;;;2256031;61;1117;-86
2023/05/11 20:45:07;207859.00;0.69;359.45;83825.00;0.28;145.64;;;;;16.50;1.00;;;;;;2256146;61;1404;-87
2023/05/11 20:47:34;305861.00;1.02;527.99;89846.00;0.30;156.04;;;;;16.60;1.00;;;;;;2256066;61;1115;-87
2023/05/11 20:50:01;308032.00;1.03;531.73;86328.00;0.29;149.97;;;;;16.30;1.00;;;;;;2256085;61;1067;-88
2023/05/11 20:52:28;351431.00;1.17;606.32;91854.00;0.31;159.51;;;;;16.40;1.00;;;;;;2256098;61;1330;-88
2023/05/11 20:54:55;332134.00;1.11;573.15;87280.00;0.29;151.61;;;;;16.30;1.00;;;;;;2256005;61;1297;-88
2023/05/11 20:57:22;201089.00;0.67;347.80;84433.00;0.28;146.69;;;;;16.10;1.00;;;;;;2255984;61;1912;-87
2023/05/11 20:59:49;235743.00;0.79;407.43;86477.00;0.29;150.22;;;;;16.20;1.00;;;;;;2256131;61;1061;-89
2023/05/11 21:02:18;190077.00;0.63;328.84;86208.00;0.29;149.76;;;;;16.40;1.00;;;;;;2256131;61;1608;-86
2023/05/11 21:04:45;358465.00;1.19;618.41;84225.00;0.28;146.33;;;;;16.50;1.00;;;;;;2256075;61;1404;-87
2023/05/11 21:07:12;224994.00;0.75;388.94;90245.00;0.30;156.73;;;;;16.50;1.00;;;;;;2256087;61;1095;-89
2023/05/11 21:09:38;226921.00;0.76;392.25;84357.00;0.28;146.56;;;;;16.60;1.00;;;;;;2256085;61;1102;-88
2023/05/11 21:12:06;183237.00;0.61;317.06;90331.00;0.30;156.88;;;;;16.50;1.00;;;;;;2255892;61;1229;-85
2023/05/11 21:14:33;232819.00;0.78;402.40;85863.00;0.29;149.16;;;;;16.30;1.00;;;;;;2255961;61;1351;-87
2023/05/11 21:17:00;200334.00;0.67;346.50;87392.00;0.29;151.80;;;;;16.20;1.00;;;;;;2274307;40;3571;-87
2023/05/11 21:19:28;116889744.00;389.63;64692320.00;116798000.00;389.33;64539980.00;;;;;16.20;1.00;;;;;;2259909;61;2017;-86
2023/05/11 21:21:55;127619.00;0.43;221.22;0.00;0.00;0.62;;;;;16.20;1.00;;;;;;2260092;61;1089;-86
2023/05/11 21:24:21;27960.00;0.09;49.05;0.00;0.00;0.62;;;;;16.30;1.00;;;;;;2257686;61;1573;-86
2023/05/11 21:26:48;52761.00;0.18;91.96;0.00;0.00;0.62;;;;;16.20;1.00;;;;;;2255848;61;1027;-87
2023/05/11 21:29:15;91818.00;0.31;159.45;0.00;0.00;0.62;;;;;16.40;1.00;;;;;;2256060;61;1011;-88
2023/05/11 21:31:42;76745.00;0.26;133.41;0.00;0.00;0.62;;;;;16.30;1.00;;;;;;2256149;61;1119;-89
2023/05/11 21:34:09;0.00;0.00;0.62;0.00;0.00;0.62;;;;;16.10;1.00;;;;;;2256024;61;1402;-88
2023/05/11 21:36:39;92680.00;0.31;160.94;0.00;0.00;0.62;;;;;16.10;1.00;;;;;;2256061;61;1130;-87
2023/05/11 21:39:06;113578.00;0.38;197.00;0.00;0.00;0.62;;;;;16.00;1.00;;;;;;2255946;61;2010;-88